Time;durP1;ratioP1;P1;durP2;ratioP2;P2;SDS_P1;SDS_P2;PMS_P1;PMS_P2;Temp;Humidity;BMP_temperature;BMP_pressure;BME280_temperature;BME280_humidity;BME280_pressure;Samples;Min_cycle;Max_cycle;Signal;HPM_P1;HPM_P2
2023/02/06 00:02:52;;;;;;;;;;;;;;;17.56;59.90;103230.48;2303542;77;22331;-73
2023/02/06 00:05:54;;;;;;;;;;;;;;;17.52;59.99;103229.86;2299328;77;51441;-74
2023/02/06 00:08:56;;;;;;;;;;;;;;;17.49;60.06;103219.35;2303314;77;50346;-73
2023/02/06 00:11:57;;;;;;;;;;;;;;;17.45;60.16;103229.09;2303200;77;50067;-73
2023/02/06 00:14:59;;;;;;;;;;;;;;;17.40;60.28;103229.41;2256814;77;50139;-72
2023/02/06 00:18:01;;;;;;;;;;;;;;;17.37;60.37;103240.35;2246195;78;51487;-73
2023/02/06 00:21:02;;;;;;;;;;;;;;;17.35;60.43;103235.59;2246189;78;50411;-74
2023/02/06 00:24:04;;;;;;;;;;;;;;;17.38;60.45;103244.73;2266977;78;50521;-74
2023/02/06 00:27:06;;;;;;;;;;;;;;;17.40;60.48;103241.46;2208954;78;52313;-73
2023/02/06 00:30:08;;;;;;;;;;;;;;;17.43;60.44;103251.94;2246297;78;51596;-73
2023/02/06 00:33:10;;;;;;;;;;;;;;;17.48;60.42;103251.11;2267027;78;50719;-73
2023/02/06 00:36:11;;;;;;;;;;;;;;;17.51;60.34;103244.19;2305044;77;52082;-73
2023/02/06 00:39:13;;;;;;;;;;;;;;;17.58;60.15;103252.16;2258313;77;51497;-73
2023/02/06 00:42:14;;;;;;;;;;;;;;;17.61;60.05;103253.26;2305483;77;51490;-73
2023/02/06 00:45:16;;;;;;;;;;;;;;;17.59;59.99;103256.52;2267965;77;51418;-74
2023/02/06 00:48:17;;;;;;;;;;;;;;;17.59;59.97;103259.70;2283649;77;51406;-73
2023/02/06 00:51:19;;;;;;;;;;;;;;;17.55;60.01;103253.72;2258818;77;52737;-73
2023/02/06 00:54:21;;;;;;;;;;;;;;;17.51;60.02;103250.88;2283629;77;50326;-73
2023/02/06 00:57:22;;;;;;;;;;;;;;;17.48;60.10;103244.42;2305630;77;50372;-73
2023/02/06 01:00:24;;;;;;;;;;;;;;;17.43;60.22;103246.58;2305562;77;50203;-73
2023/02/06 01:03:25;;;;;;;;;;;;;;;17.42;60.26;103248.91;2282273;77;51718;-73
2023/02/06 01:06:27;;;;;;;;;;;;;;;17.41;60.33;103245.34;2283715;77;50314;-73
2023/02/06 01:09:29;;;;;;;;;;;;;;;17.39;60.38;103255.33;2283561;77;50497;-73
2023/02/06 01:12:30;;;;;;;;;;;;;;;17.40;60.43;103244.14;2281864;77;50255;-73
2023/02/06 01:15:32;;;;;;;;;;;;;;;17.43;60.43;103241.72;2257273;77;49651;-73
2023/02/06 01:18:33;;;;;;;;;;;;;;;17.46;60.45;103246.35;2245998;78;50779;-73
2023/02/06 01:21:35;;;;;;;;;;;;;;;17.51;60.37;103240.67;2267413;78;51420;-74
2023/02/06 01:24:37;;;;;;;;;;;;;;;17.56;60.25;103246.05;2267061;78;50416;-73
2023/02/06 01:27:39;;;;;;;;;;;;;;;17.61;60.09;103246.56;2221613;78;50053;-74
2023/02/06 01:30:40;;;;;;;;;;;;;;;17.62;59.99;103242.94;2246099;78;50669;-73
2023/02/06 01:33:43;;;;;;;;;;;;;;;17.61;60.04;103242.55;2246196;78;51502;-73
2023/02/06 01:36:44;;;;;;;;;;;;;;;17.59;60.03;103251.17;2267268;78;50377;-73
2023/02/06 01:39:46;;;;;;;;;;;;;;;17.57;60.01;103243.77;2245737;78;50106;-73
2023/02/06 01:42:47;;;;;;;;;;;;;;;17.53;60.02;103239.59;2248021;77;51556;-73
2023/02/06 01:45:49;;;;;;;;;;;;;;;17.49;60.10;103230.06;2290619;77;51538;-73
2023/02/06 01:48:51;;;;;;;;;;;;;;;17.46;60.24;103214.72;2287612;77;50737;-73
2023/02/06 01:51:54;;;;;;;;;;;;;;;17.42;60.32;103211.43;2283254;77;49657;-73
2023/02/06 01:54:57;;;;;;;;;;;;;;;17.39;60.44;103210.29;2304763;77;50442;-73
2023/02/06 01:57:59;;;;;;;;;;;;;;;17.38;60.50;103201.41;2305728;77;51632;-73
2023/02/06 02:01:01;;;;;;;;;;;;;;;17.41;60.46;103204.34;2305682;77;50552;-73
2023/02/06 02:04:04;;;;;;;;;;;;;;;17.44;60.47;103194.75;2282239;77;52734;-73
2023/02/06 02:07:13;;;;;;;;;;;;;;;17.50;60.33;103201.00;2305630;77;51506;-73
2023/02/06 02:10:15;;;;;;;;;;;;;;;17.57;60.18;103190.67;2305700;77;51433;-73
2023/02/06 02:13:16;;;;;;;;;;;;;;;17.61;59.99;103191.68;2279156;77;50366;-73
2023/02/06 02:16:19;;;;;;;;;;;;;;;17.61;59.89;103193.02;2290674;77;51138;-73
2023/02/06 02:19:26;;;;;;;;;;;;;;;17.62;59.84;103186.71;2299379;77;51617;-73
2023/02/06 02:22:48;;;;;;;;;;;;;;;17.59;59.81;103187.41;2299238;77;50784;-72
2023/02/06 02:26:04;;;;;;;;;;;;;;;17.55;59.87;103177.42;2299459;77;51513;-73
2023/02/06 02:29:07;;;;;;;;;;;;;;;17.49;59.96;103169.83;2277648;77;51477;-73
2023/02/06 02:32:22;;;;;;;;;;;;;;;17.44;60.06;103163.12;2299211;77;50824;-73
2023/02/06 02:35:42;;;;;;;;;;;;;;;17.39;60.23;103156.77;2299350;77;50494;-73
2023/02/06 02:38:51;;;;;;;;;;;;;;;17.36;60.28;103159.67;2299325;77;51663;-72
2023/02/06 02:41:57;;;;;;;;;;;;;;;17.36;60.32;103152.98;2277579;77;51041;-72
2023/02/06 02:45:17;;;;;;;;;;;;;;;17.36;60.34;103143.62;2286170;77;51619;-73
2023/02/06 02:48:26;;;;;;;;;;;;;;;17.40;60.26;103145.95;2299399;77;51589;-73
2023/02/06 02:51:27;;;;;;;;;;;;;;;17.45;60.15;103146.11;2299361;77;51631;-73
2023/02/06 02:54:29;;;;;;;;;;;;;;;17.50;60.00;103146.62;2303194;77;50992;-73
2023/02/06 02:57:30;;;;;;;;;;;;;;;17.57;59.85;103146.50;2303368;77;51626;-73
2023/02/06 03:00:33;;;;;;;;;;;;;;;17.64;59.61;103140.57;2299416;77;51518;-73
2023/02/06 03:03:35;;;;;;;;;;;;;;;17.66;59.55;103140.96;2299173;77;50753;-73
2023/02/06 03:06:42;;;;;;;;;;;;;;;17.65;59.51;103136.09;2303361;77;51368;-73
2023/02/06 03:10:00;;;;;;;;;;;;;;;17.62;59.47;103126.47;2299326;77;50055;-73
2023/02/06 03:13:03;;;;;;;;;;;;;;;17.61;59.49;103142.15;2297115;77;51637;-73
2023/02/06 03:16:10;;;;;;;;;;;;;;;17.56;59.58;103144.31;2288566;77;50399;-73
2023/02/06 03:19:13;;;;;;;;;;;;;;;17.51;59.66;103154.52;2277460;77;51001;-73
2023/02/06 03:22:14;;;;;;;;;;;;;;;17.45;59.81;103154.14;2298885;77;51547;-73
2023/02/06 03:25:18;;;;;;;;;;;;;;;17.40;59.96;103151.80;2299409;77;51339;-73
2023/02/06 03:28:27;;;;;;;;;;;;;;;17.38;60.04;103156.41;2299331;77;51521;-73
2023/02/06 03:31:30;;;;;;;;;;;;;;;17.38;60.10;103159.93;2303489;77;51288;-73
2023/02/06 03:34:39;;;;;;;;;;;;;;;17.39;60.12;103147.39;2299095;77;50284;-73
2023/02/06 03:37:41;;;;;;;;;;;;;;;17.43;60.07;103144.03;2303244;77;49633;-73
2023/02/06 03:40:43;;;;;;;;;;;;;;;17.49;59.97;103132.36;2299462;77;51174;-73
2023/02/06 03:43:45;;;;;;;;;;;;;;;17.57;59.82;103121.07;2287187;77;51210;-73
2023/02/06 03:46:46;;;;;;;;;;;;;;;17.62;59.62;103123.80;2275823;77;51498;-72
2023/02/06 03:49:48;;;;;;;;;;;;;;;17.64;59.51;103125.84;2267161;78;51485;-73
2023/02/06 03:52:50;;;;;;;;;;;;;;;17.64;59.54;103116.97;2266969;78;50313;-73
2023/02/06 03:55:53;;;;;;;;;;;;;;;17.62;59.56;103125.14;2245916;78;52710;-73
2023/02/06 03:58:55;;;;;;;;;;;;;;;17.61;59.53;103145.31;2267290;78;50284;-73
2023/02/06 04:01:58;;;;;;;;;;;;;;;17.58;59.55;103151.75;2267097;78;50637;-72
2023/02/06 04:04:59;;;;;;;;;;;;;;;17.54;59.64;103156.11;2267183;78;51499;-73
2023/02/06 04:08:01;;;;;;;;;;;;;;;17.49;59.70;103144.41;2254914;77;50371;-73
2023/02/06 04:11:02;;;;;;;;;;;;;;;17.43;59.90;103140.86;2265811;78;50028;-73
2023/02/06 04:14:04;;;;;;;;;;;;;;;17.40;60.04;103147.30;2244006;78;50709;-72
2023/02/06 04:17:05;;;;;;;;;;;;;;;17.39;60.12;103144.72;2265362;78;50400;-73
2023/02/06 04:20:07;;;;;;;;;;;;;;;17.39;60.15;103148.28;2244034;78;52516;-72
2023/02/06 04:23:09;;;;;;;;;;;;;;;17.40;60.17;103141.09;2244040;78;50056;-72
2023/02/06 04:26:12;;;;;;;;;;;;;;;17.48;60.14;103139.18;2265488;78;50198;-72
2023/02/06 04:29:13;;;;;;;;;;;;;;;17.53;59.98;103130.33;2244117;78;50830;-73
2023/02/06 04:32:15;;;;;;;;;;;;;;;17.61;59.75;103114.04;2243976;78;49603;-73
2023/02/06 04:35:16;;;;;;;;;;;;;;;17.67;59.56;103110.03;2244146;78;50644;-73
2023/02/06 04:38:18;;;;;;;;;;;;;;;17.67;59.49;103100.66;2252801;77;50411;-73
2023/02/06 04:41:20;;;;;;;;;;;;;;;17.66;59.40;103103.48;2270367;77;50281;-73
2023/02/06 04:44:21;;;;;;;;;;;;;;;17.64;59.39;103112.46;2245884;78;51493;-74
2023/02/06 04:47:23;;;;;;;;;;;;;;;17.61;59.45;103109.17;2246273;78;51446;-74
2023/02/06 04:50:27;;;;;;;;;;;;;;;17.56;59.59;103089.93;2246434;78;51420;-74
2023/02/06 04:53:28;;;;;;;;;;;;;;;17.50;59.74;103091.75;2267347;78;22206;-74
2023/02/06 04:56:29;;;;;;;;;;;;;;;17.45;59.84;103098.78;2246273;78;49599;-73
2023/02/06 04:59:31;;;;;;;;;;;;;;;17.41;59.96;103100.81;2267384;78;50750;-74
2023/02/06 05:02:38;;;;;;;;;;;;;;;17.39;60.07;103101.90;2245874;78;50674;-73
2023/02/06 05:05:36;;;;;;;;;;;;;;;17.41;60.08;103107.99;2266686;77;22744;-74
2023/02/06 05:08:37;;;;;;;;;;;;;;;17.42;60.12;103108.39;2238291;78;49655;-74
2023/02/06 05:11:39;;;;;;;;;;;;;;;17.47;60.06;103103.54;2255357;78;51580;-74
2023/02/06 05:14:40;;;;;;;;;;;;;;;17.52;59.97;103093.80;2238824;79;50777;-73
2023/02/06 05:17:42;;;;;;;;;;;;;;;17.57;59.85;103101.88;2249893;77;50279;-73
2023/02/06 05:20:43;;;;;;;;;;;;;;;17.64;59.71;103111.61;2240269;79;49522;-73
2023/02/06 05:23:45;;;;;;;;;;;;;;;17.71;59.53;103108.84;2239252;79;50239;-72
2023/02/06 05:26:47;;;;;;;;;;;;;;;17.72;59.39;103095.81;2241446;79;50660;-72
2023/02/06 05:29:48;;;;;;;;;;;;;;;17.72;59.33;103100.31;2238542;79;51485;-73
2023/02/06 05:32:50;;;;;;;;;;;;;;;17.69;59.29;103098.73;2240419;79;51429;-73
2023/02/06 05:35:51;;;;;;;;;;;;;;;17.68;59.35;103101.55;2238444;79;51349;-73
2023/02/06 05:38:53;;;;;;;;;;;;;;;17.63;59.45;103092.52;2248486;77;51390;-73
2023/02/06 05:41:55;;;;;;;;;;;;;;;17.59;59.54;103096.38;2245810;78;51283;-73
2023/02/06 05:44:56;;;;;;;;;;;;;;;17.54;59.60;103082.00;2245705;78;51039;-73
2023/02/06 05:47:58;;;;;;;;;;;;;;;17.47;59.81;103082.12;2245996;78;50128;-73
2023/02/06 05:50:59;;;;;;;;;;;;;;;17.46;59.89;103089.77;2266970;78;50409;-73
2023/02/06 05:54:01;;;;;;;;;;;;;;;17.48;59.96;103093.19;2266806;78;51498;-73
2023/02/06 05:57:03;;;;;;;;;;;;;;;17.48;60.07;103095.86;2245698;78;49535;-72
2023/02/06 06:00:04;;;;;;;;;;;;;;;17.53;59.81;103097.71;2245773;78;51518;-71
2023/02/06 06:03:06;;;;;;;;;;;;;;;17.58;59.56;103102.23;2266517;78;51529;-72
2023/02/06 06:06:08;;;;;;;;;;;;;;;17.64;59.24;103112.46;2245759;78;51599;-72
2023/02/06 06:09:09;;;;;;;;;;;;;;;17.70;59.05;103112.50;2258096;77;51086;-72
2023/02/06 06:12:11;;;;;;;;;;;;;;;17.73;58.91;103126.14;2262647;78;50516;-73
2023/02/06 06:15:12;;;;;;;;;;;;;;;17.71;58.91;103122.72;2245697;78;51482;-73
2023/02/06 06:18:14;;;;;;;;;;;;;;;17.70;58.87;103123.67;2266866;78;51428;-73
2023/02/06 06:21:15;;;;;;;;;;;;;;;17.66;58.87;103128.42;2220194;78;51460;-73
2023/02/06 06:24:17;;;;;;;;;;;;;;;17.66;58.94;103131.59;2266623;78;50277;-73
2023/02/06 06:27:19;;;;;;;;;;;;;;;17.65;59.29;103137.44;2245787;78;50731;-73
2023/02/06 06:30:20;;;;;;;;;;;;;;;17.62;59.27;103130.95;2266717;78;50716;-72
2023/02/06 06:33:22;;;;;;;;;;;;;;;17.54;60.01;103134.70;2245553;78;51435;-72
2023/02/06 06:36:23;;;;;;;;;;;;;;;17.58;59.61;103130.83;2245606;78;51276;-73
2023/02/06 06:39:25;;;;;;;;;;;;;;;17.56;59.66;103126.92;2246007;78;51515;-72
2023/02/06 06:42:26;;;;;;;;;;;;;;;17.58;59.69;103137.52;2267358;78;50324;-73
2023/02/06 06:45:28;;;;;;;;;;;;;;;17.61;59.72;103123.41;2246628;78;49589;-72
2023/02/06 06:48:30;;;;;;;;;;;;;;;17.66;59.63;103128.91;2245593;78;49559;-73
2023/02/06 06:51:31;;;;;;;;;;;;;;;17.69;59.63;103132.69;2267287;78;50420;-72
2023/02/06 06:54:33;;;;;;;;;;;;;;;17.73;59.72;103123.47;2266678;78;50269;-74
2023/02/06 06:57:34;;;;;;;;;;;;;;;17.74;59.72;103117.13;2244287;78;49632;-72
2023/02/06 07:00:36;;;;;;;;;;;;;;;17.75;59.83;103119.70;2269497;78;50336;-72
2023/02/06 07:03:38;;;;;;;;;;;;;;;17.74;59.80;103114.45;2266562;78;50220;-72
2023/02/06 07:06:39;;;;;;;;;;;;;;;17.71;59.71;103116.03;2267909;77;50397;-72
2023/02/06 07:09:41;;;;;;;;;;;;;;;17.69;59.67;103109.93;2244026;78;51158;-72
2023/02/06 07:12:42;;;;;;;;;;;;;;;17.69;59.61;103110.78;2267286;78;50394;-72
2023/02/06 07:15:44;;;;;;;;;;;;;;;17.67;59.60;103114.55;2267474;78;50745;-72
2023/02/06 07:18:46;;;;;;;;;;;;;;;17.62;59.53;103103.72;2267393;78;51556;-71
2023/02/06 07:21:47;;;;;;;;;;;;;;;17.54;59.70;103115.47;2271075;77;50204;-72
2023/02/06 07:24:49;;;;;;;;;;;;;;;17.51;59.75;103107.67;2270876;78;50719;-72
2023/02/06 07:27:51;;;;;;;;;;;;;;;17.51;59.75;103111.69;2271272;78;51423;-72
2023/02/06 07:30:52;;;;;;;;;;;;;;;17.56;59.67;103114.87;2267335;78;51590;-72
2023/02/06 07:33:54;;;;;;;;;;;;;;;17.59;59.55;103125.34;2245985;78;52564;-72
2023/02/06 07:36:56;;;;;;;;;;;;;;;17.63;59.45;103121.97;2273252;77;51423;-72
2023/02/06 07:39:57;;;;;;;;;;;;;;;17.68;59.32;103122.96;2278067;77;51559;-71
2023/02/06 07:42:59;;;;;;;;;;;;;;;17.73;59.18;103120.79;2246187;78;51483;-72
2023/02/06 07:46:01;;;;;;;;;;;;;;;17.77;59.04;103112.87;2246115;78;51031;-71
2023/02/06 07:49:02;;;;;;;;;;;;;;;17.77;58.98;103116.89;2246170;78;49714;-72
2023/02/06 07:52:04;;;;;;;;;;;;;;;17.75;58.94;103114.80;2246238;78;51543;-71
2023/02/06 07:55:06;;;;;;;;;;;;;;;17.73;58.94;103118.95;2267381;78;50704;-72
2023/02/06 07:58:10;;;;;;;;;;;;;;;17.71;58.91;103112.86;2221596;78;49604;-72
2023/02/06 08:01:10;;;;;;;;;;;;;;;17.67;58.93;103103.34;2246719;78;22321;-70
2023/02/06 08:04:12;;;;;;;;;;;;;;;17.64;58.89;103097.73;2267135;78;51582;-72
2023/02/06 08:07:15;;;;;;;;;;;;;;;17.62;58.91;103102.84;2274225;77;51466;-73
2023/02/06 08:10:17;;;;;;;;;;;;;;;17.53;59.09;103096.38;2288394;77;50144;-71
2023/02/06 08:13:18;;;;;;;;;;;;;;;17.52;59.17;103112.08;2302767;77;50265;-72
2023/02/06 08:16:21;;;;;;;;;;;;;;;17.63;58.87;103125.49;2298912;77;50263;-72
2023/02/06 08:19:22;;;;;;;;;;;;;;;17.74;58.54;103125.16;2298965;77;51583;-72
2023/02/06 08:22:24;;;;;;;;;;;;;;;17.80;58.32;103126.93;2303305;77;50754;-71
2023/02/06 08:25:25;;;;;;;;;;;;;;;17.89;58.08;103120.50;2303024;77;51404;-72
2023/02/06 08:28:27;;;;;;;;;;;;;;;17.95;57.90;103116.84;2299054;77;51422;-72
2023/02/06 08:31:30;;;;;;;;;;;;;;;17.94;57.86;103111.62;2299077;77;51537;-72
2023/02/06 08:34:32;;;;;;;;;;;;;;;17.97;57.78;103120.26;2298754;77;50784;-72
2023/02/06 08:37:33;;;;;;;;;;;;;;;18.04;57.56;103116.14;2299678;77;50119;-72
2023/02/06 08:40:35;;;;;;;;;;;;;;;18.12;57.36;103113.35;2267419;78;50325;-72
2023/02/06 08:43:36;;;;;;;;;;;;;;;18.17;57.23;103101.79;2267256;78;50471;-72
2023/02/06 08:46:38;;;;;;;;;;;;;;;18.15;57.25;103109.09;2246760;78;49998;-72
2023/02/06 08:49:40;;;;;;;;;;;;;;;18.15;57.17;103116.63;2246966;78;50079;-71
2023/02/06 08:52:41;;;;;;;;;;;;;;;18.07;57.30;103109.69;2267712;78;50237;-71
2023/02/06 08:55:43;;;;;;;;;;;;;;;18.11;57.18;103125.91;2254251;77;50660;-71
2023/02/06 08:58:45;;;;;;;;;;;;;;;18.04;57.25;103117.48;2303889;77;49848;-73
2023/02/06 09:01:48;;;;;;;;;;;;;;;17.99;57.34;103113.45;2299769;77;50759;-72
2023/02/06 09:04:49;;;;;;;;;;;;;;;17.92;57.44;103111.72;2303431;77;51502;-72
2023/02/06 09:07:51;;;;;;;;;;;;;;;17.87;57.53;103113.91;2289777;77;50872;-71
2023/02/06 09:10:53;;;;;;;;;;;;;;;17.88;57.49;103104.03;2247249;78;50509;-71
2023/02/06 09:13:55;;;;;;;;;;;;;;;17.93;57.29;103100.05;2246343;78;51410;-72
2023/02/06 09:16:57;;;;;;;;;;;;;;;17.94;57.31;103111.13;2267717;78;51575;-71
2023/02/06 09:19:58;;;;;;;;;;;;;;;17.97;57.17;103113.56;2271428;77;50678;-71
2023/02/06 09:23:00;;;;;;;;;;;;;;;18.04;57.03;103114.80;2304873;76;50130;-71
2023/02/06 09:26:02;;;;;;;;;;;;;;;18.15;56.74;103122.48;2283871;77;50120;-72
2023/02/06 09:29:07;;;;;;;;;;;;;;;18.09;56.88;103147.94;2305602;77;50606;-71
2023/02/06 09:32:08;;;;;;;;;;;;;;;18.14;56.80;103146.25;2305665;77;50106;-71
2023/02/06 09:35:10;;;;;;;;;;;;;;;18.19;56.64;103149.42;2283574;77;51311;-72
2023/02/06 09:38:11;;;;;;;;;;;;;;;18.22;56.57;103155.87;2282826;77;50331;-72
2023/02/06 09:41:20;;;;;;;;;;;;;;;18.24;56.52;103166.84;2267270;78;50788;-72
2023/02/06 09:44:29;;;;;;;;;;;;;;;18.24;56.51;103168.68;2277782;78;51463;-71
2023/02/06 09:47:32;;;;;;;;;;;;;;;18.18;56.56;103169.98;2238605;78;50997;-72
2023/02/06 09:50:35;;;;;;;;;;;;;;;18.21;56.46;103175.59;2259506;78;50407;-71
2023/02/06 09:53:38;;;;;;;;;;;;;;;18.14;56.56;103179.74;2242974;78;50574;-71
2023/02/06 09:56:59;;;;;;;;;;;;;;;18.04;56.76;103167.53;2238493;78;50545;-72
2023/02/06 10:00:02;;;;;;;;;;;;;;;18.00;56.86;103166.05;2238488;78;51248;-72
2023/02/06 10:03:06;;;;;;;;;;;;;;;17.98;56.81;103176.02;2259243;78;50337;-73
2023/02/06 10:06:09;;;;;;;;;;;;;;;17.98;56.79;103165.30;2259346;78;50397;-72
2023/02/06 10:09:11;;;;;;;;;;;;;;;17.98;56.77;103174.69;2276230;77;50741;-73
2023/02/06 10:12:14;;;;;;;;;;;;;;;18.04;56.61;103168.87;2290801;77;50456;-73
2023/02/06 10:15:19;;;;;;;;;;;;;;;18.04;56.58;103183.12;2290866;77;50283;-72
2023/02/06 10:18:25;;;;;;;;;;;;;;;18.08;56.50;103179.70;2289728;76;24298;-73
2023/02/06 10:21:31;;;;;;;;;;;;;;;18.12;56.39;103179.84;2299431;76;51519;-73
2023/02/06 10:24:51;;;;;;;;;;;;;;;18.13;56.32;103186.91;2303084;77;50984;-73
2023/02/06 10:27:54;;;;;;;;;;;;;;;18.14;56.32;103186.44;2299356;77;50402;-72
2023/02/06 10:30:57;;;;;;;;;;;;;;;18.26;56.08;103193.51;2299325;77;51529;-73
2023/02/06 10:34:07;;;;;;;;;;;;;;;18.27;56.03;103183.17;2299197;77;51435;-71
2023/02/06 10:37:19;;;;;;;;;;;;;;;18.30;55.87;103174.05;2276456;77;50140;-72
2023/02/06 10:40:32;;;;;;;;;;;;;;;18.36;55.77;103182.93;2288143;77;50783;-72
2023/02/06 10:43:35;;;;;;;;;;;;;;;18.41;55.60;103175.38;2299192;77;51563;-71
2023/02/06 10:46:38;;;;;;;;;;;;;;;18.44;55.45;103170.62;2299332;77;50699;-73
2023/02/06 10:49:42;;;;;;;;;;;;;;;18.39;55.44;103170.13;2303523;77;51013;-72
2023/02/06 10:52:43;;;;;;;;;;;;;;;18.33;55.52;103163.92;2299130;77;51396;-70
2023/02/06 10:56:05;;;;;;;;;;;;;;;18.30;55.52;103164.17;2299316;77;51411;-72
2023/02/06 10:59:08;;;;;;;;;;;;;;;18.26;55.50;103158.66;2299325;77;51669;-71
2023/02/06 11:02:11;;;;;;;;;;;;;;;18.14;55.77;103173.05;2277349;77;52812;-72
2023/02/06 11:05:17;;;;;;;;;;;;;;;18.09;55.84;103173.88;2299273;77;50416;-71
2023/02/06 11:08:20;;;;;;;;;;;;;;;18.03;55.88;103174.72;2290539;77;50436;-72
2023/02/06 11:11:28;;;;;;;;;;;;;;;18.06;55.88;103165.59;2302749;77;50728;-71
2023/02/06 11:14:33;;;;;;;;;;;;;;;18.08;55.74;103178.86;2305814;76;22250;-71
2023/02/06 11:17:36;;;;;;;;;;;;;;;18.15;55.53;103189.47;2283825;77;50877;-71
2023/02/06 11:20:37;;;;;;;;;;;;;;;18.16;55.45;103185.81;2305693;77;50246;-71
2023/02/06 11:23:39;;;;;;;;;;;;;;;18.25;55.14;103186.45;2305381;77;50278;-71
2023/02/06 11:26:42;;;;;;;;;;;;;;;18.27;55.03;103184.02;2305630;77;50246;-71
2023/02/06 11:29:45;;;;;;;;;;;;;;;18.25;55.03;103183.77;2282691;77;49673;-72
2023/02/06 11:32:46;;;;;;;;;;;;;;;18.36;54.75;103181.59;2305499;77;51299;-71
2023/02/06 11:35:49;;;;;;;;;;;;;;;18.39;54.66;103174.64;2283724;77;51370;-72
2023/02/06 11:38:59;;;;;;;;;;;;;;;18.43;54.58;103175.63;2288162;77;51547;-72
2023/02/06 11:42:08;;;;;;;;;;;;;;;18.45;54.58;103188.93;2299307;77;51592;-71
2023/02/06 11:45:29;;;;;;;;;;;;;;;18.46;54.52;103192.81;2299577;77;50935;-72
2023/02/06 11:48:32;;;;;;;;;;;;;;;18.49;54.47;103192.56;2299336;77;51527;-72
2023/02/06 11:51:50;;;;;;;;;;;;;;;18.49;54.39;103199.76;2299477;77;50354;-72
2023/02/06 11:55:00;;;;;;;;;;;;;;;18.43;54.48;103195.73;2303145;77;52639;-71
2023/02/06 11:58:02;;;;;;;;;;;;;;;18.36;54.62;103195.84;2302995;77;22009;-71
2023/02/06 12:01:05;;;;;;;;;;;;;;;18.30;54.78;103200.35;2299454;77;50379;-71
2023/02/06 12:04:08;;;;;;;;;;;;;;;18.26;54.79;103191.70;2299150;77;51351;-71
2023/02/06 12:07:14;;;;;;;;;;;;;;;18.20;54.84;103192.66;2276380;77;52370;-71
2023/02/06 12:10:16;;;;;;;;;;;;;;;18.14;54.95;103195.33;2292066;77;50467;-71
2023/02/06 12:13:22;;;;;;;;;;;;;;;18.15;54.92;103188.14;2305488;77;51525;-71
2023/02/06 12:16:24;;;;;;;;;;;;;;;18.18;54.85;103190.57;2305629;77;50287;-71
2023/02/06 12:19:34;;;;;;;;;;;;;;;18.25;54.64;103199.85;2283597;77;50080;-72
2023/02/06 12:22:37;;;;;;;;;;;;;;;18.27;54.66;103191.22;2305536;77;50364;-72
2023/02/06 12:25:44;;;;;;;;;;;;;;;18.30;54.60;103194.98;2305471;76;50315;-72
2023/02/06 12:28:45;;;;;;;;;;;;;;;18.33;54.55;103198.77;2305113;77;22188;-72
2023/02/06 12:31:54;;;;;;;;;;;;;;;18.36;54.47;103197.67;2283190;77;51760;-74
2023/02/06 12:35:01;;;;;;;;;;;;;;;18.37;54.44;103204.27;2305279;77;51465;-72
2023/02/06 12:38:07;;;;;;;;;;;;;;;18.42;54.32;103201.20;2296456;77;51509;-72
2023/02/06 12:41:23;;;;;;;;;;;;;;;18.42;54.30;103203.42;2294343;77;50795;-72
2023/02/06 12:44:32;;;;;;;;;;;;;;;18.48;54.18;103209.64;2277275;77;51435;-72
2023/02/06 12:47:38;;;;;;;;;;;;;;;18.48;54.16;103225.72;2299334;77;50767;-73
2023/02/06 12:50:41;;;;;;;;;;;;;;;18.58;53.99;103226.36;2299296;77;51477;-72
2023/02/06 12:53:44;;;;;;;;;;;;;;;18.54;54.01;103216.34;2299081;77;50440;-71
2023/02/06 12:56:53;;;;;;;;;;;;;;;18.61;53.87;103214.05;2277517;77;51264;-72
2023/02/06 13:00:11;;;;;;;;;;;;;;;18.60;53.89;103208.30;2299323;77;54885;-71
2023/02/06 13:03:20;;;;;;;;;;;;;;;18.59;53.90;103215.98;2299532;77;22681;-72
2023/02/06 13:06:23;;;;;;;;;;;;;;;18.52;54.01;103210.73;2299168;77;50458;-71
2023/02/06 13:09:33;;;;;;;;;;;;;;;18.47;54.06;103215.98;2256498;77;49675;-72
2023/02/06 13:12:34;;;;;;;;;;;;;;;18.36;54.31;103211.08;2266571;77;50270;-72
2023/02/06 13:15:39;;;;;;;;;;;;;;;18.33;54.43;103212.66;2267313;78;50421;-72
2023/02/06 13:18:49;;;;;;;;;;;;;;;18.31;54.42;103223.98;2278940;77;50910;-71
2023/02/06 13:22:06;;;;;;;;;;;;;;;18.28;54.47;103226.41;2299551;77;23016;-71
2023/02/06 13:25:29;;;;;;;;;;;;;;;18.31;54.39;103223.48;2299408;77;51628;-72
2023/02/06 13:28:32;;;;;;;;;;;;;;;18.36;54.32;103225.33;2299535;77;50385;-72
2023/02/06 13:31:34;;;;;;;;;;;;;;;18.39;54.26;103241.66;2299490;77;50425;-72
2023/02/06 13:34:37;;;;;;;;;;;;;;;18.41;54.18;103239.72;2303311;77;50625;-72
2023/02/06 13:37:42;;;;;;;;;;;;;;;18.44;54.13;103230.94;2299051;77;50710;-72
2023/02/06 13:40:44;;;;;;;;;;;;;;;18.48;54.07;103232.92;2299590;77;51554;-73
2023/02/06 13:43:47;;;;;;;;;;;;;;;18.55;53.93;103235.50;2303214;77;51852;-72
2023/02/06 13:47:08;;;;;;;;;;;;;;;18.53;53.95;103241.95;2294495;77;49652;-73
2023/02/06 13:50:26;;;;;;;;;;;;;;;18.65;53.65;103244.99;2281136;77;51569;-72
2023/02/06 13:53:45;;;;;;;;;;;;;;;18.65;53.72;103253.03;2305143;77;51453;-72
2023/02/06 13:57:04;;;;;;;;;;;;;;;18.73;53.51;103251.97;2304441;77;50779;-73
2023/02/06 14:00:11;;;;;;;;;;;;;;;18.72;53.46;103258.29;2305702;77;50374;-72
2023/02/06 14:03:14;;;;;;;;;;;;;;;18.65;53.62;103250.35;2305668;77;50715;-73
2023/02/06 14:06:26;;;;;;;;;;;;;;;18.64;53.64;103260.73;2305634;77;51830;-72
2023/02/06 14:09:29;;;;;;;;;;;;;;;18.55;53.78;103252.05;2305441;77;51534;-72
2023/02/06 14:12:38;;;;;;;;;;;;;;;18.47;53.96;103260.68;2283508;77;52611;-73
2023/02/06 14:15:50;;;;;;;;;;;;;;;18.40;54.10;103258.13;2306090;77;22352;-72
2023/02/06 14:18:53;;;;;;;;;;;;;;;18.33;54.23;103262.25;2292231;77;51811;-72
2023/02/06 14:22:08;;;;;;;;;;;;;;;18.31;54.26;103267.71;2299395;77;50399;-72
2023/02/06 14:25:14;;;;;;;;;;;;;;;18.33;54.29;103272.97;2277478;77;52666;-72
2023/02/06 14:28:27;;;;;;;;;;;;;;;18.40;54.09;103280.42;2299570;77;51510;-72
2023/02/06 14:31:37;;;;;;;;;;;;;;;18.43;54.00;103286.04;2299551;77;51585;-73
2023/02/06 14:34:41;;;;;;;;;;;;;;;18.45;53.92;103287.63;2299338;77;51507;-73
2023/02/06 14:37:47;;;;;;;;;;;;;;;18.49;53.83;103289.58;2277607;77;51240;-73
2023/02/06 14:40:49;;;;;;;;;;;;;;;18.53;53.69;103290.21;2299522;77;51661;-72
2023/02/06 14:43:51;;;;;;;;;;;;;;;18.56;53.63;103298.02;2299163;77;50236;-72
2023/02/06 14:46:52;;;;;;;;;;;;;;;18.56;53.64;103302.03;2290610;77;51544;-73
2023/02/06 14:49:54;;;;;;;;;;;;;;;18.59;53.62;103313.86;2291485;77;51518;-72
2023/02/06 14:53:04;;;;;;;;;;;;;;;18.66;53.41;103325.83;2305508;77;51279;-72
2023/02/06 14:56:06;;;;;;;;;;;;;;;18.66;53.32;103329.85;2305762;77;50402;-71
2023/02/06 14:59:15;;;;;;;;;;;;;;;18.65;53.32;103321.42;2283868;77;50771;-72
2023/02/06 15:02:19;;;;;;;;;;;;;;;18.75;53.14;103317.09;2283350;77;51723;-72
2023/02/06 15:05:23;;;;;;;;;;;;;;;18.76;53.13;103327.35;2305386;77;50617;-72
2023/02/06 15:08:25;;;;;;;;;;;;;;;18.80;52.94;103327.47;2305714;77;50364;-71
2023/02/06 15:11:31;;;;;;;;;;;;;;;18.74;53.10;103327.43;2305700;77;50355;-73
2023/02/06 15:14:33;;;;;;;;;;;;;;;18.65;53.20;103327.66;2283466;77;52650;-72
2023/02/06 15:17:35;;;;;;;;;;;;;;;18.58;53.38;103326.91;2260314;78;50045;-72
2023/02/06 15:20:41;;;;;;;;;;;;;;;18.54;53.45;103330.30;2246581;78;51522;-73
2023/02/06 15:23:53;;;;;;;;;;;;;;;18.43;53.62;103335.14;2265932;78;50428;-71
2023/02/06 15:26:56;;;;;;;;;;;;;;;18.37;53.80;103342.78;2297295;76;51277;-71
2023/02/06 15:29:58;;;;;;;;;;;;;;;18.36;53.80;103346.44;2267409;77;50382;-72
2023/02/06 15:33:00;;;;;;;;;;;;;;;18.39;53.75;103345.71;2267263;78;51496;-72
2023/02/06 15:36:02;;;;;;;;;;;;;;;18.40;53.75;103348.78;2267528;78;50382;-71
2023/02/06 15:39:04;;;;;;;;;;;;;;;18.46;53.54;103361.72;2297156;76;50909;-71
2023/02/06 15:42:06;;;;;;;;;;;;;;;18.48;53.50;103366.97;2267469;78;51595;-72
2023/02/06 15:45:09;;;;;;;;;;;;;;;18.53;53.40;103367.97;2267941;78;50067;-72